sensor_id;sensor_type;location;lat;lon;timestamp;temperature;humidity
68189;DHT22;66299;47.514;19.218;2023-03-04T00:02:20;-1.58;95.56
68189;DHT22;66299;47.514;19.218;2023-03-04T00:04:52;-1.56;95.64
68189;DHT22;66299;47.514;19.218;2023-03-04T00:07:22;-1.65;95.55
68189;DHT22;66299;47.514;19.218;2023-03-04T00:09:54;-1.63;95.62
68189;DHT22;66299;47.514;19.218;2023-03-04T00:12:25;-1.65;96.04
68189;DHT22;66299;47.514;19.218;2023-03-04T00:14:57;-1.61;96.26
68189;DHT22;66299;47.514;19.218;2023-03-04T00:17:28;-1.52;95.43
68189;DHT22;66299;47.514;19.218;2023-03-04T00:19:59;-1.54;95.33
68189;DHT22;66299;47.514;19.218;2023-03-04T00:22:29;-1.65;95.28
68189;DHT22;66299;47.514;19.218;2023-03-04T00:24:59;-1.76;95.30
68189;DHT22;66299;47.514;19.218;2023-03-04T00:27:31;-1.78;95.46
68189;DHT22;66299;47.514;19.218;2023-03-04T00:30:02;-1.83;95.72
68189;DHT22;66299;47.514;19.218;2023-03-04T00:32:32;-1.86;95.77
68189;DHT22;66299;47.514;19.218;2023-03-04T00:35:02;-1.73;95.58
68189;DHT22;66299;47.514;19.218;2023-03-04T00:37:33;-1.72;95.41
68189;DHT22;66299;47.514;19.218;2023-03-04T00:40:05;-1.72;95.84
68189;DHT22;66299;47.514;19.218;2023-03-04T00:42:37;-1.68;95.39
68189;DHT22;66299;47.514;19.218;2023-03-04T00:45:06;-1.82;95.70
68189;DHT22;66299;47.514;19.218;2023-03-04T00:47:37;-1.87;95.30
68189;DHT22;66299;47.514;19.218;2023-03-04T00:50:11;-1.86;95.96
68189;DHT22;66299;47.514;19.218;2023-03-04T00:52:41;-1.85;95.57
68189;DHT22;66299;47.514;19.218;2023-03-04T00:55:14;-1.76;95.40
68189;DHT22;66299;47.514;19.218;2023-03-04T00:57:46;-1.73;95.60
68189;DHT22;66299;47.514;19.218;2023-03-04T01:00:16;-1.82;95.03
68189;DHT22;66299;47.514;19.218;2023-03-04T01:02:49;-1.93;95.31
68189;DHT22;66299;47.514;19.218;2023-03-04T01:05:19;-1.94;95.14
68189;DHT22;66299;47.514;19.218;2023-03-04T01:07:51;-2.09;95.26
68189;DHT22;66299;47.514;19.218;2023-03-04T01:10:23;-2.17;95.33
68189;DHT22;66299;47.514;19.218;2023-03-04T01:12:54;-2.24;95.65
68189;DHT22;66299;47.514;19.218;2023-03-04T01:15:25;-2.27;95.92
68189;DHT22;66299;47.514;19.218;2023-03-04T01:17:57;-2.24;95.63
68189;DHT22;66299;47.514;19.218;2023-03-04T01:20:29;-2.27;95.42
68189;DHT22;66299;47.514;19.218;2023-03-04T01:22:58;-2.20;95.59
68189;DHT22;66299;47.514;19.218;2023-03-04T01:25:29;-2.26;95.46
68189;DHT22;66299;47.514;19.218;2023-03-04T01:28:03;-2.37;95.31
68189;DHT22;66299;47.514;19.218;2023-03-04T01:30:31;-2.34;95.91
68189;DHT22;66299;47.514;19.218;2023-03-04T01:33:01;-2.36;95.75
68189;DHT22;66299;47.514;19.218;2023-03-04T01:35:29;-2.27;95.96
68189;DHT22;66299;47.514;19.218;2023-03-04T01:38:01;-2.38;95.55
68189;DHT22;66299;47.514;19.218;2023-03-04T01:40:37;-2.31;95.84
68189;DHT22;66299;47.514;19.218;2023-03-04T01:43:10;-2.23;95.16
68189;DHT22;66299;47.514;19.218;2023-03-04T01:45:44;-2.38;95.25
68189;DHT22;66299;47.514;19.218;2023-03-04T01:48:14;-2.28;95.31
68189;DHT22;66299;47.514;19.218;2023-03-04T01:50:44;-2.44;95.26
68189;DHT22;66299;47.514;19.218;2023-03-04T01:53:24;-2.52;95.59
68189;DHT22;66299;47.514;19.218;2023-03-04T01:55:58;-2.59;95.88
68189;DHT22;66299;47.514;19.218;2023-03-04T01:58:37;-2.64;95.88
68189;DHT22;66299;47.514;19.218;2023-03-04T02:01:05;-2.64;95.96
68189;DHT22;66299;47.514;19.218;2023-03-04T02:03:36;-2.52;96.20
68189;DHT22;66299;47.514;19.218;2023-03-04T02:06:04;-2.42;96.01
68189;DHT22;66299;47.514;19.218;2023-03-04T02:08:36;-2.58;95.46
68189;DHT22;66299;47.514;19.218;2023-03-04T02:11:06;-2.61;95.43
68189;DHT22;66299;47.514;19.218;2023-03-04T02:13:43;-2.66;96.00
68189;DHT22;66299;47.514;19.218;2023-03-04T02:16:13;-2.54;95.97
68189;DHT22;66299;47.514;19.218;2023-03-04T02:18:42;-2.52;95.13
68189;DHT22;66299;47.514;19.218;2023-03-04T02:21:16;-2.38;95.74
68189;DHT22;66299;47.514;19.218;2023-03-04T02:23:56;-2.49;94.87
68189;DHT22;66299;47.514;19.218;2023-03-04T02:26:32;-2.62;94.80
68189;DHT22;66299;47.514;19.218;2023-03-04T02:29:02;-2.66;95.19
68189;DHT22;66299;47.514;19.218;2023-03-04T02:31:33;-2.72;95.33
68189;DHT22;66299;47.514;19.218;2023-03-04T02:34:12;-2.79;94.99
68189;DHT22;66299;47.514;19.218;2023-03-04T02:36:43;-2.79;96.05
68189;DHT22;66299;47.514;19.218;2023-03-04T02:39:22;-2.83;95.97
68189;DHT22;66299;47.514;19.218;2023-03-04T02:41:55;-2.80;96.41
68189;DHT22;66299;47.514;19.218;2023-03-04T02:44:25;-2.87;95.96
68189;DHT22;66299;47.514;19.218;2023-03-04T02:46:55;-2.66;96.79
68189;DHT22;66299;47.514;19.218;2023-03-04T02:49:25;-2.82;95.87
68189;DHT22;66299;47.514;19.218;2023-03-04T02:51:59;-2.97;95.82
68189;DHT22;66299;47.514;19.218;2023-03-04T02:54:28;-3.04;96.46
68189;DHT22;66299;47.514;19.218;2023-03-04T02:57:01;-2.92;96.15
68189;DHT22;66299;47.514;19.218;2023-03-04T02:59:30;-3.01;95.49
68189;DHT22;66299;47.514;19.218;2023-03-04T03:02:01;-3.11;95.78
68189;DHT22;66299;47.514;19.218;2023-03-04T03:04:34;-3.10;95.80
68189;DHT22;66299;47.514;19.218;2023-03-04T03:07:07;-3.10;96.06
68189;DHT22;66299;47.514;19.218;2023-03-04T03:09:38;-3.17;95.94
68189;DHT22;66299;47.514;19.218;2023-03-04T03:12:12;-3.10;95.80
68189;DHT22;66299;47.514;19.218;2023-03-04T03:14:40;-3.16;95.23
68189;DHT22;66299;47.514;19.218;2023-03-04T03:17:10;-3.26;95.21
68189;DHT22;66299;47.514;19.218;2023-03-04T03:19:41;-3.17;95.49
68189;DHT22;66299;47.514;19.218;2023-03-04T03:22:12;-3.07;95.31
68189;DHT22;66299;47.514;19.218;2023-03-04T03:24:42;-3.07;94.99
68189;DHT22;66299;47.514;19.218;2023-03-04T03:27:15;-3.24;95.46
68189;DHT22;66299;47.514;19.218;2023-03-04T03:29:45;-3.31;95.54
68189;DHT22;66299;47.514;19.218;2023-03-04T03:32:15;-3.48;94.71
68189;DHT22;66299;47.514;19.218;2023-03-04T03:34:44;-3.54;94.75
68189;DHT22;66299;47.514;19.218;2023-03-04T03:37:14;-3.45;96.06
68189;DHT22;66299;47.514;19.218;2023-03-04T03:39:45;-3.35;95.75
68189;DHT22;66299;47.514;19.218;2023-03-04T03:42:18;-3.45;95.05
68189;DHT22;66299;47.514;19.218;2023-03-04T03:44:51;-3.44;95.14
68189;DHT22;66299;47.514;19.218;2023-03-04T03:47:24;-3.55;94.81
68189;DHT22;66299;47.514;19.218;2023-03-04T03:49:52;-3.64;95.53
68189;DHT22;66299;47.514;19.218;2023-03-04T03:52:23;-3.68;95.25
68189;DHT22;66299;47.514;19.218;2023-03-04T03:54:52;-3.81;94.72
68189;DHT22;66299;47.514;19.218;2023-03-04T03:57:22;-3.71;95.24
68189;DHT22;66299;47.514;19.218;2023-03-04T03:59:52;-3.74;95.21
68189;DHT22;66299;47.514;19.218;2023-03-04T04:02:22;-3.83;95.22
68189;DHT22;66299;47.514;19.218;2023-03-04T04:04:55;-3.75;95.12
68189;DHT22;66299;47.514;19.218;2023-03-04T04:07:24;-3.82;94.35
68189;DHT22;66299;47.514;19.218;2023-03-04T04:09:52;-3.75;95.67
68189;DHT22;66299;47.514;19.218;2023-03-04T04:12:24;-3.81;95.52
68189;DHT22;66299;47.514;19.218;2023-03-04T04:14:53;-3.89;95.32
68189;DHT22;66299;47.514;19.218;2023-03-04T04:17:25;-4.02;95.00
68189;DHT22;66299;47.514;19.218;2023-03-04T04:19:54;-3.93;96.01
68189;DHT22;66299;47.514;19.218;2023-03-04T04:22:22;-3.87;95.76
68189;DHT22;66299;47.514;19.218;2023-03-04T04:24:50;-3.89;95.86
68189;DHT22;66299;47.514;19.218;2023-03-04T04:27:19;-3.71;94.44
68189;DHT22;66299;47.514;19.218;2023-03-04T04:29:51;-3.79;95.37
68189;DHT22;66299;47.514;19.218;2023-03-04T04:32:21;-3.86;95.06
68189;DHT22;66299;47.514;19.218;2023-03-04T04:34:51;-3.81;95.28
68189;DHT22;66299;47.514;19.218;2023-03-04T04:37:21;-3.45;93.86
68189;DHT22;66299;47.514;19.218;2023-03-04T04:39:53;-3.44;93.29
68189;DHT22;66299;47.514;19.218;2023-03-04T04:42:25;-3.33;92.29
68189;DHT22;66299;47.514;19.218;2023-03-04T04:44:56;-3.26;92.29
68189;DHT22;66299;47.514;19.218;2023-03-04T04:47:31;-3.16;90.73
68189;DHT22;66299;47.514;19.218;2023-03-04T04:50:00;-3.04;90.94
68189;DHT22;66299;47.514;19.218;2023-03-04T04:52:32;-3.16;90.76
68189;DHT22;66299;47.514;19.218;2023-03-04T04:55:01;-3.10;90.53
68189;DHT22;66299;47.514;19.218;2023-03-04T04:57:30;-3.11;90.37
68189;DHT22;66299;47.514;19.218;2023-03-04T05:00:02;-3.18;90.33
68189;DHT22;66299;47.514;19.218;2023-03-04T05:02:33;-3.30;91.69
68189;DHT22;66299;47.514;19.218;2023-03-04T05:05:04;-3.16;91.37
68189;DHT22;66299;47.514;19.218;2023-03-04T05:07:33;-3.11;91.33
68189;DHT22;66299;47.514;19.218;2023-03-04T05:10:02;-2.93;90.17
68189;DHT22;66299;47.514;19.218;2023-03-04T05:12:32;-3.17;90.88
68189;DHT22;66299;47.514;19.218;2023-03-04T05:15:03;-3.08;90.78
68189;DHT22;66299;47.514;19.218;2023-03-04T05:17:34;-3.10;90.70
68189;DHT22;66299;47.514;19.218;2023-03-04T05:20:04;-2.86;90.07
68189;DHT22;66299;47.514;19.218;2023-03-04T05:22:34;-3.00;90.13
68189;DHT22;66299;47.514;19.218;2023-03-04T05:25:04;-3.21;90.76
68189;DHT22;66299;47.514;19.218;2023-03-04T05:27:36;-3.35;91.46
68189;DHT22;66299;47.514;19.218;2023-03-04T05:30:10;-3.51;91.78
68189;DHT22;66299;47.514;19.218;2023-03-04T05:32:40;-3.52;91.94
68189;DHT22;66299;47.514;19.218;2023-03-04T05:35:09;-3.51;92.26
68189;DHT22;66299;47.514;19.218;2023-03-04T05:37:38;-3.41;91.69
68189;DHT22;66299;47.514;19.218;2023-03-04T05:40:10;-3.27;91.39
68189;DHT22;66299;47.514;19.218;2023-03-04T05:42:40;-3.27;91.39
68189;DHT22;66299;47.514;19.218;2023-03-04T05:45:13;-3.14;91.49
68189;DHT22;66299;47.514;19.218;2023-03-04T05:47:44;-3.16;91.65
68189;DHT22;66299;47.514;19.218;2023-03-04T05:50:12;-3.27;91.89
68189;DHT22;66299;47.514;19.218;2023-03-04T05:52:43;-3.26;92.46
68189;DHT22;66299;47.514;19.218;2023-03-04T05:55:14;-3.26;92.27
68189;DHT22;66299;47.514;19.218;2023-03-04T05:57:44;-3.21;92.19
68189;DHT22;66299;47.514;19.218;2023-03-04T06:00:17;-3.34;92.27
68189;DHT22;66299;47.514;19.218;2023-03-04T06:02:46;-3.33;92.71
68189;DHT22;66299;47.514;19.218;2023-03-04T06:05:17;-3.27;93.08
68189;DHT22;66299;47.514;19.218;2023-03-04T06:07:46;-3.26;92.43
68189;DHT22;66299;47.514;19.218;2023-03-04T06:10:17;-3.27;92.66
68189;DHT22;66299;47.514;19.218;2023-03-04T06:12:49;-3.20;92.79
68189;DHT22;66299;47.514;19.218;2023-03-04T06:15:20;-3.26;93.35
68189;DHT22;66299;47.514;19.218;2023-03-04T06:17:51;-3.24;93.26
68189;DHT22;66299;47.514;19.218;2023-03-04T06:20:21;-3.11;92.93
68189;DHT22;66299;47.514;19.218;2023-03-04T06:22:50;-3.03;93.00
68189;DHT22;66299;47.514;19.218;2023-03-04T06:25:19;-2.85;92.29
68189;DHT22;66299;47.514;19.218;2023-03-04T06:27:50;-2.70;91.44
68189;DHT22;66299;47.514;19.218;2023-03-04T06:30:23;-2.37;91.18
68189;DHT22;66299;47.514;19.218;2023-03-04T06:32:54;-2.20;90.57
68189;DHT22;66299;47.514;19.218;2023-03-04T06:35:24;-2.13;90.67
68189;DHT22;66299;47.514;19.218;2023-03-04T06:37:55;-1.83;89.81
68189;DHT22;66299;47.514;19.218;2023-03-04T06:40:26;-1.35;88.92
68189;DHT22;66299;47.514;19.218;2023-03-04T06:42:57;-1.14;88.46
68189;DHT22;66299;47.514;19.218;2023-03-04T06:45:28;-1.07;88.21
68189;DHT22;66299;47.514;19.218;2023-03-04T06:47:58;-0.96;87.87
68189;DHT22;66299;47.514;19.218;2023-03-04T06:50:28;-0.65;87.76
68189;DHT22;66299;47.514;19.218;2023-03-04T06:52:59;-0.34;87.71
68189;DHT22;66299;47.514;19.218;2023-03-04T06:55:29;0.11;86.02
68189;DHT22;66299;47.514;19.218;2023-03-04T06:57:57;0.23;85.82
68189;DHT22;66299;47.514;19.218;2023-03-04T07:00:31;0.45;84.98
68189;DHT22;66299;47.514;19.218;2023-03-04T07:03:07;0.40;85.05
68189;DHT22;66299;47.514;19.218;2023-03-04T07:05:36;1.09;82.32
68189;DHT22;66299;47.514;19.218;2023-03-04T07:08:07;1.07;83.27
68189;DHT22;66299;47.514;19.218;2023-03-04T07:10:36;1.58;81.74
68189;DHT22;66299;47.514;19.218;2023-03-04T07:13:05;1.60;81.39
68189;DHT22;66299;47.514;19.218;2023-03-04T07:15:37;1.98;80.03
68189;DHT22;66299;47.514;19.218;2023-03-04T07:18:09;2.22;78.27
68189;DHT22;66299;47.514;19.218;2023-03-04T07:20:40;2.27;77.99
68189;DHT22;66299;47.514;19.218;2023-03-04T07:23:11;2.58;77.73
68189;DHT22;66299;47.514;19.218;2023-03-04T07:25:40;2.78;77.09
68189;DHT22;66299;47.514;19.218;2023-03-04T07:28:08;2.94;75.97
68189;DHT22;66299;47.514;19.218;2023-03-04T07:30:43;2.80;76.62
68189;DHT22;66299;47.514;19.218;2023-03-04T07:33:15;2.83;76.05
68189;DHT22;66299;47.514;19.218;2023-03-04T07:35:45;2.95;76.04
68189;DHT22;66299;47.514;19.218;2023-03-04T07:38:16;3.29;74.67
68189;DHT22;66299;47.514;19.218;2023-03-04T07:40:44;3.43;74.45
68189;DHT22;66299;47.514;19.218;2023-03-04T07:43:16;3.64;73.48
68189;DHT22;66299;47.514;19.218;2023-03-04T07:45:47;3.67;73.78
68189;DHT22;66299;47.514;19.218;2023-03-04T07:48:26;3.80;73.44
68189;DHT22;66299;47.514;19.218;2023-03-04T07:51:05;3.94;72.49
68189;DHT22;66299;47.514;19.218;2023-03-04T07:53:36;3.83;73.30
68189;DHT22;66299;47.514;19.218;2023-03-04T07:56:09;3.87;72.91
68189;DHT22;66299;47.514;19.218;2023-03-04T07:58:41;3.95;72.25
68189;DHT22;66299;47.514;19.218;2023-03-04T08:01:13;4.09;72.05
68189;DHT22;66299;47.514;19.218;2023-03-04T08:03:42;4.18;71.47
68189;DHT22;66299;47.514;19.218;2023-03-04T08:06:16;4.23;71.72
68189;DHT22;66299;47.514;19.218;2023-03-04T08:08:48;4.48;70.14
68189;DHT22;66299;47.514;19.218;2023-03-04T08:11:19;4.66;69.65
68189;DHT22;66299;47.514;19.218;2023-03-04T08:13:49;4.63;70.13
68189;DHT22;66299;47.514;19.218;2023-03-04T08:16:23;4.84;68.85
68189;DHT22;66299;47.514;19.218;2023-03-04T08:18:53;4.92;68.36
68189;DHT22;66299;47.514;19.218;2023-03-04T08:21:24;5.01;68.62
68189;DHT22;66299;47.514;19.218;2023-03-04T08:23:55;5.19;68.44
68189;DHT22;66299;47.514;19.218;2023-03-04T08:26:27;4.98;67.88
68189;DHT22;66299;47.514;19.218;2023-03-04T08:28:57;5.29;67.73
68189;DHT22;66299;47.514;19.218;2023-03-04T08:31:32;5.50;67.12
68189;DHT22;66299;47.514;19.218;2023-03-04T08:34:03;5.38;66.47
68189;DHT22;66299;47.514;19.218;2023-03-04T08:36:33;5.53;65.92
68189;DHT22;66299;47.514;19.218;2023-03-04T08:39:03;5.59;65.49
68189;DHT22;66299;47.514;19.218;2023-03-04T08:41:34;5.67;66.09
68189;DHT22;66299;47.514;19.218;2023-03-04T08:44:04;6.07;64.56
68189;DHT22;66299;47.514;19.218;2023-03-04T08:46:36;6.16;63.60
68189;DHT22;66299;47.514;19.218;2023-03-04T08:49:05;6.34;61.00
68189;DHT22;66299;47.514;19.218;2023-03-04T08:51:37;6.42;59.84
68189;DHT22;66299;47.514;19.218;2023-03-04T08:54:06;6.39;60.00
68189;DHT22;66299;47.514;19.218;2023-03-04T08:56:34;6.61;59.24
68189;DHT22;66299;47.514;19.218;2023-03-04T08:59:03;6.66;58.96
68189;DHT22;66299;47.514;19.218;2023-03-04T09:01:33;6.77;58.42
68189;DHT22;66299;47.514;19.218;2023-03-04T09:04:04;6.83;58.34
68189;DHT22;66299;47.514;19.218;2023-03-04T09:06:33;7.23;58.17
68189;DHT22;66299;47.514;19.218;2023-03-04T09:09:01;7.32;58.43
68189;DHT22;66299;47.514;19.218;2023-03-04T09:11:30;7.24;57.68
68189;DHT22;66299;47.514;19.218;2023-03-04T09:13:59;7.18;57.33
68189;DHT22;66299;47.514;19.218;2023-03-04T09:16:29;7.45;58.03
68189;DHT22;66299;47.514;19.218;2023-03-04T09:18:59;7.68;57.46
68189;DHT22;66299;47.514;19.218;2023-03-04T09:21:30;8.00;55.44
68189;DHT22;66299;47.514;19.218;2023-03-04T09:23:59;8.14;54.64
68189;DHT22;66299;47.514;19.218;2023-03-04T09:26:31;8.13;54.08
68189;DHT22;66299;47.514;19.218;2023-03-04T09:29:01;8.09;53.74
68189;DHT22;66299;47.514;19.218;2023-03-04T09:31:33;8.11;54.21
68189;DHT22;66299;47.514;19.218;2023-03-04T09:34:02;8.51;53.55
68189;DHT22;66299;47.514;19.218;2023-03-04T09:36:32;8.34;53.42
68189;DHT22;66299;47.514;19.218;2023-03-04T09:39:03;8.48;54.22
68189;DHT22;66299;47.514;19.218;2023-03-04T09:41:37;8.62;54.56
68189;DHT22;66299;47.514;19.218;2023-03-04T09:44:15;8.44;53.99
68189;DHT22;66299;47.514;19.218;2023-03-04T09:46:49;8.64;54.71
68189;DHT22;66299;47.514;19.218;2023-03-04T09:49:20;8.51;54.31
68189;DHT22;66299;47.514;19.218;2023-03-04T09:51:59;8.62;54.16
68189;DHT22;66299;47.514;19.218;2023-03-04T09:54:50;8.65;54.57
68189;DHT22;66299;47.514;19.218;2023-03-04T09:57:26;8.50;54.70
68189;DHT22;66299;47.514;19.218;2023-03-04T10:00:03;8.78;54.28
68189;DHT22;66299;47.514;19.218;2023-03-04T10:02:43;8.72;54.54
68189;DHT22;66299;47.514;19.218;2023-03-04T10:05:15;8.73;54.83
68189;DHT22;66299;47.514;19.218;2023-03-04T10:07:55;9.33;54.40
68189;DHT22;66299;47.514;19.218;2023-03-04T10:10:27;9.22;54.25
68189;DHT22;66299;47.514;19.218;2023-03-04T10:13:00;9.19;54.33
68189;DHT22;66299;47.514;19.218;2023-03-04T10:15:35;8.89;54.11
68189;DHT22;66299;47.514;19.218;2023-03-04T10:18:13;8.83;53.90
68189;DHT22;66299;47.514;19.218;2023-03-04T10:20:53;8.86;54.60
68189;DHT22;66299;47.514;19.218;2023-03-04T10:23:27;8.82;54.15
68189;DHT22;66299;47.514;19.218;2023-03-04T10:25:59;8.67;53.97
68189;DHT22;66299;47.514;19.218;2023-03-04T10:28:34;9.10;54.36
68189;DHT22;66299;47.514;19.218;2023-03-04T10:31:10;8.90;53.99
68189;DHT22;66299;47.514;19.218;2023-03-04T10:33:40;8.79;54.28
68189;DHT22;66299;47.514;19.218;2023-03-04T10:36:27;8.82;54.59
68189;DHT22;66299;47.514;19.218;2023-03-04T10:39:05;8.75;54.88
68189;DHT22;66299;47.514;19.218;2023-03-04T10:41:35;8.79;54.82
68189;DHT22;66299;47.514;19.218;2023-03-04T10:44:15;8.79;54.81
68189;DHT22;66299;47.514;19.218;2023-03-04T10:46:47;9.02;54.77
68189;DHT22;66299;47.514;19.218;2023-03-04T10:49:18;9.43;53.79
68189;DHT22;66299;47.514;19.218;2023-03-04T10:51:52;9.38;53.70
68189;DHT22;66299;47.514;19.218;2023-03-04T10:54:28;8.79;55.07
68189;DHT22;66299;47.514;19.218;2023-03-04T10:57:01;8.80;55.09
68189;DHT22;66299;47.514;19.218;2023-03-04T10:59:35;8.95;53.95
68189;DHT22;66299;47.514;19.218;2023-03-04T11:02:25;9.30;54.09
68189;DHT22;66299;47.514;19.218;2023-03-04T11:05:15;8.82;53.45
68189;DHT22;66299;47.514;19.218;2023-03-04T11:07:46;9.17;54.30
68189;DHT22;66299;47.514;19.218;2023-03-04T11:10:28;8.86;53.41
68189;DHT22;66299;47.514;19.218;2023-03-04T11:13:01;9.17;53.24
68189;DHT22;66299;47.514;19.218;2023-03-04T11:15:50;9.09;52.93
68189;DHT22;66299;47.514;19.218;2023-03-04T11:18:28;8.93;53.03
68189;DHT22;66299;47.514;19.218;2023-03-04T11:21:02;9.38;52.42
68189;DHT22;66299;47.514;19.218;2023-03-04T11:23:42;9.12;52.85
68189;DHT22;66299;47.514;19.218;2023-03-04T11:26:15;9.23;52.69
68189;DHT22;66299;47.514;19.218;2023-03-04T11:28:48;9.27;53.00
68189;DHT22;66299;47.514;19.218;2023-03-04T11:31:21;9.07;51.99
68189;DHT22;66299;47.514;19.218;2023-03-04T11:33:54;9.31;51.50
68189;DHT22;66299;47.514;19.218;2023-03-04T11:36:30;9.12;51.92
68189;DHT22;66299;47.514;19.218;2023-03-04T11:39:13;9.17;52.30
68189;DHT22;66299;47.514;19.218;2023-03-04T11:41:50;9.12;52.25
68189;DHT22;66299;47.514;19.218;2023-03-04T11:44:21;9.19;51.79
68189;DHT22;66299;47.514;19.218;2023-03-04T11:47:04;9.38;51.42
68189;DHT22;66299;47.514;19.218;2023-03-04T11:50:08;9.48;51.63
68189;DHT22;66299;47.514;19.218;2023-03-04T11:52:55;9.40;51.52
68189;DHT22;66299;47.514;19.218;2023-03-04T11:55:34;9.82;51.97
68189;DHT22;66299;47.514;19.218;2023-03-04T11:58:18;9.75;51.86
68189;DHT22;66299;47.514;19.218;2023-03-04T12:00:58;9.64;51.51
68189;DHT22;66299;47.514;19.218;2023-03-04T12:03:51;9.57;51.52
68189;DHT22;66299;47.514;19.218;2023-03-04T12:06:32;9.96;50.82
68189;DHT22;66299;47.514;19.218;2023-03-04T12:09:12;9.59;51.60
68189;DHT22;66299;47.514;19.218;2023-03-04T12:11:50;9.31;51.60
68189;DHT22;66299;47.514;19.218;2023-03-04T12:14:29;9.52;51.43
68189;DHT22;66299;47.514;19.218;2023-03-04T12:17:15;9.79;51.64
68189;DHT22;66299;47.514;19.218;2023-03-04T12:23:00;10.01;50.83
68189;DHT22;66299;47.514;19.218;2023-03-04T12:25:37;10.16;50.27
68189;DHT22;66299;47.514;19.218;2023-03-04T12:28:23;9.95;49.91
68189;DHT22;66299;47.514;19.218;2023-03-04T12:31:07;9.88;50.04
68189;DHT22;66299;47.514;19.218;2023-03-04T12:33:54;9.79;49.66
68189;DHT22;66299;47.514;19.218;2023-03-04T12:36:31;10.20;49.79
68189;DHT22;66299;47.514;19.218;2023-03-04T12:39:16;10.05;49.79
68189;DHT22;66299;47.514;19.218;2023-03-04T12:41:55;10.15;50.19
68189;DHT22;66299;47.514;19.218;2023-03-04T12:44:26;10.32;49.91
68189;DHT22;66299;47.514;19.218;2023-03-04T12:47:12;10.52;48.79
68189;DHT22;66299;47.514;19.218;2023-03-04T12:49:56;10.53;48.81
68189;DHT22;66299;47.514;19.218;2023-03-04T12:52:36;10.40;49.06
68189;DHT22;66299;47.514;19.218;2023-03-04T12:55:13;10.37;48.68
68189;DHT22;66299;47.514;19.218;2023-03-04T12:57:45;10.78;48.52
68189;DHT22;66299;47.514;19.218;2023-03-04T13:00:22;11.01;48.18
68189;DHT22;66299;47.514;19.218;2023-03-04T13:03:12;10.81;48.19
68189;DHT22;66299;47.514;19.218;2023-03-04T13:06:05;11.00;47.91
68189;DHT22;66299;47.514;19.218;2023-03-04T13:08:41;11.28;47.66
68189;DHT22;66299;47.514;19.218;2023-03-04T13:11:32;11.38;47.37
68189;DHT22;66299;47.514;19.218;2023-03-04T13:14:07;10.74;48.15
68189;DHT22;66299;47.514;19.218;2023-03-04T13:16:39;11.46;47.65
68189;DHT22;66299;47.514;19.218;2023-03-04T13:22:41;11.08;47.94
68189;DHT22;66299;47.514;19.218;2023-03-04T13:25:31;11.32;47.32
68189;DHT22;66299;47.514;19.218;2023-03-04T13:28:25;11.35;46.42
68189;DHT22;66299;47.514;19.218;2023-03-04T13:31:15;11.25;46.02
68189;DHT22;66299;47.514;19.218;2023-03-04T13:33:58;11.15;46.69
68189;DHT22;66299;47.514;19.218;2023-03-04T13:39:35;11.11;48.21
68189;DHT22;66299;47.514;19.218;2023-03-04T13:42:36;11.01;48.18
68189;DHT22;66299;47.514;19.218;2023-03-04T13:45:29;10.90;45.74
68189;DHT22;66299;47.514;19.218;2023-03-04T13:47:59;11.07;45.83
68189;DHT22;66299;47.514;19.218;2023-03-04T13:50:40;11.22;45.85
68189;DHT22;66299;47.514;19.218;2023-03-04T13:53:43;11.15;45.92
68189;DHT22;66299;47.514;19.218;2023-03-04T13:56:30;11.29;45.96
68189;DHT22;66299;47.514;19.218;2023-03-04T13:59:33;11.29;44.20
68189;DHT22;66299;47.514;19.218;2023-03-04T14:02:15;11.35;41.87
68189;DHT22;66299;47.514;19.218;2023-03-04T14:04:55;11.42;40.80
68189;DHT22;66299;47.514;19.218;2023-03-04T14:07:26;11.30;40.53
68189;DHT22;66299;47.514;19.218;2023-03-04T14:09:59;11.35;41.09
68189;DHT22;66299;47.514;19.218;2023-03-04T14:12:33;11.35;41.29
68189;DHT22;66299;47.514;19.218;2023-03-04T14:15:19;11.30;41.42
68189;DHT22;66299;47.514;19.218;2023-03-04T14:17:50;11.28;40.45
68189;DHT22;66299;47.514;19.218;2023-03-04T14:20:27;11.30;40.78
68189;DHT22;66299;47.514;19.218;2023-03-04T14:22:59;11.21;41.14
68189;DHT22;66299;47.514;19.218;2023-03-04T14:25:29;11.14;40.56
68189;DHT22;66299;47.514;19.218;2023-03-04T14:28:08;11.11;41.75
68189;DHT22;66299;47.514;19.218;2023-03-04T14:30:39;10.88;42.59
68189;DHT22;66299;47.514;19.218;2023-03-04T14:33:15;10.87;42.08
68189;DHT22;66299;47.514;19.218;2023-03-04T14:35:48;11.01;41.96
68189;DHT22;66299;47.514;19.218;2023-03-04T14:38:22;10.91;42.64
68189;DHT22;66299;47.514;19.218;2023-03-04T14:40:54;10.91;42.13
68189;DHT22;66299;47.514;19.218;2023-03-04T14:43:28;10.95;42.01
68189;DHT22;66299;47.514;19.218;2023-03-04T14:46:06;10.82;42.07
68189;DHT22;66299;47.514;19.218;2023-03-04T14:48:36;10.80;42.13
68189;DHT22;66299;47.514;19.218;2023-03-04T14:51:05;10.71;42.04
68189;DHT22;66299;47.514;19.218;2023-03-04T14:53:33;10.67;42.37
68189;DHT22;66299;47.514;19.218;2023-03-04T14:56:05;10.56;42.52
68189;DHT22;66299;47.514;19.218;2023-03-04T14:58:37;10.56;42.86
68189;DHT22;66299;47.514;19.218;2023-03-04T15:01:16;10.50;43.36
68189;DHT22;66299;47.514;19.218;2023-03-04T15:03:52;10.33;43.72
68189;DHT22;66299;47.514;19.218;2023-03-04T15:06:25;10.42;43.76
68189;DHT22;66299;47.514;19.218;2023-03-04T15:08:58;10.34;43.85
68189;DHT22;66299;47.514;19.218;2023-03-04T15:11:30;10.30;43.92
68189;DHT22;66299;47.514;19.218;2023-03-04T15:14:01;10.25;44.12
68189;DHT22;66299;47.514;19.218;2023-03-04T15:16:52;10.22;44.72
68189;DHT22;66299;47.514;19.218;2023-03-04T15:19:24;10.02;45.24
68189;DHT22;66299;47.514;19.218;2023-03-04T15:22:02;10.02;45.47
68189;DHT22;66299;47.514;19.218;2023-03-04T15:24:39;9.98;45.54
68189;DHT22;66299;47.514;19.218;2023-03-04T15:27:09;9.89;45.52
68189;DHT22;66299;47.514;19.218;2023-03-04T15:29:42;9.95;45.50
68189;DHT22;66299;47.514;19.218;2023-03-04T15:32:12;9.86;46.21
68189;DHT22;66299;47.514;19.218;2023-03-04T15:34:42;9.77;45.74
68189;DHT22;66299;47.514;19.218;2023-03-04T15:37:18;9.61;46.22
68189;DHT22;66299;47.514;19.218;2023-03-04T15:39:53;9.62;46.23
68189;DHT22;66299;47.514;19.218;2023-03-04T15:42:30;9.58;45.73
68189;DHT22;66299;47.514;19.218;2023-03-04T15:45:11;9.51;45.84
68189;DHT22;66299;47.514;19.218;2023-03-04T15:47:48;9.38;45.66
68189;DHT22;66299;47.514;19.218;2023-03-04T15:50:21;9.26;46.06
68189;DHT22;66299;47.514;19.218;2023-03-04T15:52:56;9.23;45.43
68189;DHT22;66299;47.514;19.218;2023-03-04T15:55:30;9.22;45.27
68189;DHT22;66299;47.514;19.218;2023-03-04T15:58:01;9.06;45.81
68189;DHT22;66299;47.514;19.218;2023-03-04T16:00:37;8.93;45.59
68189;DHT22;66299;47.514;19.218;2023-03-04T16:03:05;8.86;45.30
68189;DHT22;66299;47.514;19.218;2023-03-04T16:05:37;8.72;44.84
68189;DHT22;66299;47.514;19.218;2023-03-04T16:08:08;8.54;44.92
68189;DHT22;66299;47.514;19.218;2023-03-04T16:10:37;8.44;44.56
68189;DHT22;66299;47.514;19.218;2023-03-04T16:13:12;8.36;44.76